sensor_id;sensor_type;location;lat;lon;timestamp;temperature;humidity
17252;DHT22;8742;51.716;8.790;2024-02-21T00:02:06;8.30;99.90
17252;DHT22;8742;51.716;8.790;2024-02-21T00:04:33;8.30;99.90
17252;DHT22;8742;51.716;8.790;2024-02-21T00:07:00;8.30;99.90
17252;DHT22;8742;51.716;8.790;2024-02-21T00:09:29;8.30;99.90
17252;DHT22;8742;51.716;8.790;2024-02-21T00:11:55;8.30;99.90
17252;DHT22;8742;51.716;8.790;2024-02-21T00:14:24;8.30;99.90
17252;DHT22;8742;51.716;8.790;2024-02-21T00:16:51;8.30;99.90
17252;DHT22;8742;51.716;8.790;2024-02-21T00:19:17;8.30;99.90
17252;DHT22;8742;51.716;8.790;2024-02-21T00:21:44;8.30;99.90
17252;DHT22;8742;51.716;8.790;2024-02-21T00:24:12;8.30;99.90
17252;DHT22;8742;51.716;8.790;2024-02-21T00:26:40;8.30;99.90
17252;DHT22;8742;51.716;8.790;2024-02-21T00:29:07;8.30;99.90
17252;DHT22;8742;51.716;8.790;2024-02-21T00:31:34;8.30;99.90
17252;DHT22;8742;51.716;8.790;2024-02-21T00:34:01;8.30;99.90
17252;DHT22;8742;51.716;8.790;2024-02-21T00:36:27;8.30;99.90
17252;DHT22;8742;51.716;8.790;2024-02-21T00:38:54;8.30;99.90
17252;DHT22;8742;51.716;8.790;2024-02-21T00:41:21;8.30;99.90
17252;DHT22;8742;51.716;8.790;2024-02-21T00:43:49;8.40;99.90
17252;DHT22;8742;51.716;8.790;2024-02-21T00:46:16;8.40;99.90
17252;DHT22;8742;51.716;8.790;2024-02-21T00:48:43;8.40;99.90
17252;DHT22;8742;51.716;8.790;2024-02-21T00:51:09;8.40;99.90
17252;DHT22;8742;51.716;8.790;2024-02-21T00:53:36;8.40;99.90
17252;DHT22;8742;51.716;8.790;2024-02-21T00:56:04;8.40;99.90
17252;DHT22;8742;51.716;8.790;2024-02-21T00:58:31;8.40;99.90
17252;DHT22;8742;51.716;8.790;2024-02-21T01:01:00;8.40;99.90
17252;DHT22;8742;51.716;8.790;2024-02-21T01:03:27;8.40;99.90
17252;DHT22;8742;51.716;8.790;2024-02-21T01:05:54;8.40;99.90
17252;DHT22;8742;51.716;8.790;2024-02-21T01:08:21;8.40;99.90
17252;DHT22;8742;51.716;8.790;2024-02-21T01:10:47;8.40;99.90
17252;DHT22;8742;51.716;8.790;2024-02-21T01:13:14;8.40;99.90
17252;DHT22;8742;51.716;8.790;2024-02-21T01:15:41;8.50;99.90
17252;DHT22;8742;51.716;8.790;2024-02-21T01:18:09;8.50;99.90
17252;DHT22;8742;51.716;8.790;2024-02-21T01:20:36;8.40;99.90
17252;DHT22;8742;51.716;8.790;2024-02-21T01:23:03;8.50;99.90
17252;DHT22;8742;51.716;8.790;2024-02-21T01:25:30;8.50;99.90
17252;DHT22;8742;51.716;8.790;2024-02-21T01:27:57;8.50;99.90
17252;DHT22;8742;51.716;8.790;2024-02-21T01:30:23;8.50;99.90
17252;DHT22;8742;51.716;8.790;2024-02-21T01:32:50;8.50;99.90
17252;DHT22;8742;51.716;8.790;2024-02-21T01:35:18;8.50;99.90
17252;DHT22;8742;51.716;8.790;2024-02-21T01:37:45;8.50;99.90
17252;DHT22;8742;51.716;8.790;2024-02-21T01:40:12;8.50;99.90
17252;DHT22;8742;51.716;8.790;2024-02-21T01:42:39;8.50;99.90
17252;DHT22;8742;51.716;8.790;2024-02-21T01:45:07;8.50;99.90
17252;DHT22;8742;51.716;8.790;2024-02-21T01:47:34;8.60;99.90
17252;DHT22;8742;51.716;8.790;2024-02-21T01:50:01;8.60;99.90
17252;DHT22;8742;51.716;8.790;2024-02-21T01:52:30;8.60;99.90
17252;DHT22;8742;51.716;8.790;2024-02-21T01:54:58;8.60;99.90
17252;DHT22;8742;51.716;8.790;2024-02-21T01:57:26;8.60;99.90
17252;DHT22;8742;51.716;8.790;2024-02-21T01:59:54;8.60;99.90
17252;DHT22;8742;51.716;8.790;2024-02-21T02:02:21;8.70;99.90
17252;DHT22;8742;51.716;8.790;2024-02-21T02:04:49;8.70;99.90
17252;DHT22;8742;51.716;8.790;2024-02-21T02:07:16;8.70;99.90
17252;DHT22;8742;51.716;8.790;2024-02-21T02:09:44;8.70;99.90
17252;DHT22;8742;51.716;8.790;2024-02-21T02:12:11;8.70;99.90
17252;DHT22;8742;51.716;8.790;2024-02-21T02:14:38;8.70;99.90
17252;DHT22;8742;51.716;8.790;2024-02-21T02:17:05;8.70;99.90
17252;DHT22;8742;51.716;8.790;2024-02-21T02:19:32;8.70;99.90
17252;DHT22;8742;51.716;8.790;2024-02-21T02:22:06;8.70;99.90
17252;DHT22;8742;51.716;8.790;2024-02-21T02:24:35;8.70;99.90
17252;DHT22;8742;51.716;8.790;2024-02-21T02:27:02;8.70;99.90
17252;DHT22;8742;51.716;8.790;2024-02-21T02:29:32;8.70;99.90
17252;DHT22;8742;51.716;8.790;2024-02-21T02:31:59;8.70;99.90
17252;DHT22;8742;51.716;8.790;2024-02-21T02:34:25;8.70;99.90
17252;DHT22;8742;51.716;8.790;2024-02-21T02:36:52;8.70;99.90
17252;DHT22;8742;51.716;8.790;2024-02-21T02:39:20;8.70;99.90
17252;DHT22;8742;51.716;8.790;2024-02-21T02:41:48;8.70;99.90
17252;DHT22;8742;51.716;8.790;2024-02-21T02:44:15;8.70;99.90
17252;DHT22;8742;51.716;8.790;2024-02-21T02:46:42;8.70;99.90
17252;DHT22;8742;51.716;8.790;2024-02-21T02:49:09;8.60;99.90
17252;DHT22;8742;51.716;8.790;2024-02-21T02:51:36;8.60;99.90
17252;DHT22;8742;51.716;8.790;2024-02-21T02:54:03;8.70;99.90
17252;DHT22;8742;51.716;8.790;2024-02-21T02:56:29;8.70;99.90
17252;DHT22;8742;51.716;8.790;2024-02-21T02:58:58;8.60;99.90
17252;DHT22;8742;51.716;8.790;2024-02-21T03:01:25;8.60;99.90
17252;DHT22;8742;51.716;8.790;2024-02-21T03:03:52;8.60;99.90
17252;DHT22;8742;51.716;8.790;2024-02-21T03:06:19;8.60;99.90
17252;DHT22;8742;51.716;8.790;2024-02-21T03:08:46;8.60;99.90
17252;DHT22;8742;51.716;8.790;2024-02-21T03:11:14;8.70;99.90
17252;DHT22;8742;51.716;8.790;2024-02-21T03:13:40;8.60;99.90
17252;DHT22;8742;51.716;8.790;2024-02-21T03:16:09;8.60;99.90
17252;DHT22;8742;51.716;8.790;2024-02-21T03:18:36;8.60;99.90
17252;DHT22;8742;51.716;8.790;2024-02-21T03:21:03;8.60;99.90
17252;DHT22;8742;51.716;8.790;2024-02-21T03:23:30;8.70;99.90
17252;DHT22;8742;51.716;8.790;2024-02-21T03:25:57;8.60;99.90
17252;DHT22;8742;51.716;8.790;2024-02-21T03:28:24;8.70;99.90
17252;DHT22;8742;51.716;8.790;2024-02-21T03:30:51;8.70;99.90
17252;DHT22;8742;51.716;8.790;2024-02-21T03:33:19;8.70;99.90
17252;DHT22;8742;51.716;8.790;2024-02-21T03:35:48;8.70;99.90
17252;DHT22;8742;51.716;8.790;2024-02-21T03:38:15;8.70;99.90
17252;DHT22;8742;51.716;8.790;2024-02-21T03:40:41;8.70;99.90
17252;DHT22;8742;51.716;8.790;2024-02-21T03:43:08;8.70;99.90
17252;DHT22;8742;51.716;8.790;2024-02-21T03:45:35;8.70;99.90
17252;DHT22;8742;51.716;8.790;2024-02-21T03:48:02;8.70;99.90
17252;DHT22;8742;51.716;8.790;2024-02-21T03:50:30;8.70;99.90
17252;DHT22;8742;51.716;8.790;2024-02-21T03:52:57;8.70;99.90
17252;DHT22;8742;51.716;8.790;2024-02-21T03:55:24;8.70;99.90
17252;DHT22;8742;51.716;8.790;2024-02-21T03:57:50;8.70;99.90
17252;DHT22;8742;51.716;8.790;2024-02-21T04:00:17;8.70;99.90
17252;DHT22;8742;51.716;8.790;2024-02-21T04:02:44;8.70;99.90
17252;DHT22;8742;51.716;8.790;2024-02-21T04:05:11;8.70;99.90
17252;DHT22;8742;51.716;8.790;2024-02-21T04:07:39;8.70;99.90
17252;DHT22;8742;51.716;8.790;2024-02-21T04:10:07;8.70;99.90
17252;DHT22;8742;51.716;8.790;2024-02-21T04:12:34;8.70;99.90
17252;DHT22;8742;51.716;8.790;2024-02-21T04:15:01;8.80;99.90
17252;DHT22;8742;51.716;8.790;2024-02-21T04:17:28;8.70;99.90
17252;DHT22;8742;51.716;8.790;2024-02-21T04:20:02;8.70;99.90
17252;DHT22;8742;51.716;8.790;2024-02-21T04:22:30;8.70;99.90
17252;DHT22;8742;51.716;8.790;2024-02-21T04:24:59;8.80;99.90
17252;DHT22;8742;51.716;8.790;2024-02-21T04:27:26;8.80;99.90
17252;DHT22;8742;51.716;8.790;2024-02-21T04:29:53;8.80;99.90
17252;DHT22;8742;51.716;8.790;2024-02-21T04:34:52;8.80;99.90
17252;DHT22;8742;51.716;8.790;2024-02-21T04:37:20;8.80;99.90
17252;DHT22;8742;51.716;8.790;2024-02-21T04:39:48;8.80;99.90
17252;DHT22;8742;51.716;8.790;2024-02-21T04:42:16;8.80;99.90
17252;DHT22;8742;51.716;8.790;2024-02-21T04:44:43;8.80;99.90
17252;DHT22;8742;51.716;8.790;2024-02-21T04:47:10;8.80;99.90
17252;DHT22;8742;51.716;8.790;2024-02-21T04:49:38;8.80;99.90
17252;DHT22;8742;51.716;8.790;2024-02-21T04:52:05;8.80;99.90
17252;DHT22;8742;51.716;8.790;2024-02-21T04:54:32;8.70;99.90
17252;DHT22;8742;51.716;8.790;2024-02-21T04:57:01;8.70;99.90
17252;DHT22;8742;51.716;8.790;2024-02-21T04:59:29;8.70;99.90
17252;DHT22;8742;51.716;8.790;2024-02-21T05:01:56;8.70;99.90
17252;DHT22;8742;51.716;8.790;2024-02-21T05:04:24;8.70;99.90
17252;DHT22;8742;51.716;8.790;2024-02-21T05:06:51;8.70;99.90
17252;DHT22;8742;51.716;8.790;2024-02-21T05:09:18;8.70;99.90
17252;DHT22;8742;51.716;8.790;2024-02-21T05:11:44;8.70;99.90
17252;DHT22;8742;51.716;8.790;2024-02-21T05:14:11;8.70;99.90
17252;DHT22;8742;51.716;8.790;2024-02-21T05:16:40;8.70;99.90
17252;DHT22;8742;51.716;8.790;2024-02-21T05:19:07;8.70;99.90
17252;DHT22;8742;51.716;8.790;2024-02-21T05:21:33;8.70;99.90
17252;DHT22;8742;51.716;8.790;2024-02-21T05:24:00;8.70;99.90
17252;DHT22;8742;51.716;8.790;2024-02-21T05:26:29;8.70;99.90
17252;DHT22;8742;51.716;8.790;2024-02-21T05:28:56;8.70;99.90
17252;DHT22;8742;51.716;8.790;2024-02-21T05:31:24;8.70;99.90
17252;DHT22;8742;51.716;8.790;2024-02-21T05:33:53;8.70;99.90
17252;DHT22;8742;51.716;8.790;2024-02-21T05:36:20;8.70;99.90
17252;DHT22;8742;51.716;8.790;2024-02-21T05:38:46;8.60;99.90
17252;DHT22;8742;51.716;8.790;2024-02-21T05:41:13;8.60;99.90
17252;DHT22;8742;51.716;8.790;2024-02-21T05:43:40;8.60;99.90
17252;DHT22;8742;51.716;8.790;2024-02-21T05:46:07;8.60;99.90
17252;DHT22;8742;51.716;8.790;2024-02-21T05:48:34;8.60;99.90
17252;DHT22;8742;51.716;8.790;2024-02-21T05:51:03;8.60;99.90
17252;DHT22;8742;51.716;8.790;2024-02-21T05:53:30;8.60;99.90
17252;DHT22;8742;51.716;8.790;2024-02-21T05:55:57;8.60;99.90
17252;DHT22;8742;51.716;8.790;2024-02-21T05:58:24;8.60;99.90
17252;DHT22;8742;51.716;8.790;2024-02-21T06:00:51;8.70;99.90
17252;DHT22;8742;51.716;8.790;2024-02-21T06:03:18;8.70;99.90
17252;DHT22;8742;51.716;8.790;2024-02-21T06:05:45;8.70;99.90
17252;DHT22;8742;51.716;8.790;2024-02-21T06:08:13;8.70;99.90
17252;DHT22;8742;51.716;8.790;2024-02-21T06:10:40;8.70;99.90
17252;DHT22;8742;51.716;8.790;2024-02-21T06:13:06;8.70;99.90
17252;DHT22;8742;51.716;8.790;2024-02-21T06:15:35;8.70;99.90
17252;DHT22;8742;51.716;8.790;2024-02-21T06:18:02;8.70;99.90
17252;DHT22;8742;51.716;8.790;2024-02-21T06:20:29;8.70;99.90
17252;DHT22;8742;51.716;8.790;2024-02-21T06:22:56;8.70;99.90
17252;DHT22;8742;51.716;8.790;2024-02-21T06:25:25;8.70;99.90
17252;DHT22;8742;51.716;8.790;2024-02-21T06:27:52;8.70;99.90
17252;DHT22;8742;51.716;8.790;2024-02-21T06:30:19;8.70;99.90
17252;DHT22;8742;51.716;8.790;2024-02-21T06:32:46;8.70;99.90
17252;DHT22;8742;51.716;8.790;2024-02-21T06:35:13;8.80;99.90
17252;DHT22;8742;51.716;8.790;2024-02-21T06:37:39;8.70;99.90
17252;DHT22;8742;51.716;8.790;2024-02-21T06:40:07;8.70;99.90
17252;DHT22;8742;51.716;8.790;2024-02-21T06:42:35;8.70;99.90
17252;DHT22;8742;51.716;8.790;2024-02-21T06:45:03;8.70;99.90
17252;DHT22;8742;51.716;8.790;2024-02-21T06:47:30;8.70;99.90
17252;DHT22;8742;51.716;8.790;2024-02-21T06:49:57;8.70;99.90
17252;DHT22;8742;51.716;8.790;2024-02-21T06:52:24;8.80;99.90
17252;DHT22;8742;51.716;8.790;2024-02-21T06:54:51;8.70;99.90
17252;DHT22;8742;51.716;8.790;2024-02-21T06:57:18;8.80;99.90
17252;DHT22;8742;51.716;8.790;2024-02-21T06:59:46;8.80;99.90
17252;DHT22;8742;51.716;8.790;2024-02-21T07:02:13;8.70;99.90
17252;DHT22;8742;51.716;8.790;2024-02-21T07:04:40;8.70;99.90
17252;DHT22;8742;51.716;8.790;2024-02-21T07:07:07;8.80;99.90
17252;DHT22;8742;51.716;8.790;2024-02-21T07:09:33;8.80;99.90
17252;DHT22;8742;51.716;8.790;2024-02-21T07:12:00;8.80;99.90
17252;DHT22;8742;51.716;8.790;2024-02-21T07:14:28;8.80;99.90
17252;DHT22;8742;51.716;8.790;2024-02-21T07:16:56;8.90;99.90
17252;DHT22;8742;51.716;8.790;2024-02-21T07:19:23;8.90;99.90
17252;DHT22;8742;51.716;8.790;2024-02-21T07:21:50;8.90;99.90
17252;DHT22;8742;51.716;8.790;2024-02-21T07:24:17;8.90;99.90
17252;DHT22;8742;51.716;8.790;2024-02-21T07:26:44;9.00;99.90
17252;DHT22;8742;51.716;8.790;2024-02-21T07:29:11;9.00;99.90
17252;DHT22;8742;51.716;8.790;2024-02-21T07:31:40;9.10;99.90
17252;DHT22;8742;51.716;8.790;2024-02-21T07:34:08;9.10;99.90
17252;DHT22;8742;51.716;8.790;2024-02-21T07:36:36;9.10;99.90
17252;DHT22;8742;51.716;8.790;2024-02-21T07:39:04;9.20;99.90
17252;DHT22;8742;51.716;8.790;2024-02-21T07:41:31;9.20;99.90
17252;DHT22;8742;51.716;8.790;2024-02-21T07:44:00;9.20;99.90
17252;DHT22;8742;51.716;8.790;2024-02-21T07:46:28;9.30;99.90
17252;DHT22;8742;51.716;8.790;2024-02-21T07:48:55;9.30;99.90
17252;DHT22;8742;51.716;8.790;2024-02-21T07:51:27;9.40;99.90
17252;DHT22;8742;51.716;8.790;2024-02-21T07:53:54;9.40;99.90
17252;DHT22;8742;51.716;8.790;2024-02-21T07:56:21;9.50;99.90
17252;DHT22;8742;51.716;8.790;2024-02-21T07:58:48;9.60;99.90
17252;DHT22;8742;51.716;8.790;2024-02-21T08:01:18;9.70;99.90
17252;DHT22;8742;51.716;8.790;2024-02-21T08:03:46;9.70;99.90
17252;DHT22;8742;51.716;8.790;2024-02-21T08:06:13;9.80;99.90
17252;DHT22;8742;51.716;8.790;2024-02-21T08:08:41;9.80;99.90
17252;DHT22;8742;51.716;8.790;2024-02-21T08:11:08;9.90;99.90
17252;DHT22;8742;51.716;8.790;2024-02-21T08:13:35;10.00;99.90
17252;DHT22;8742;51.716;8.790;2024-02-21T08:16:02;10.00;99.90
17252;DHT22;8742;51.716;8.790;2024-02-21T08:18:29;10.00;99.90
17252;DHT22;8742;51.716;8.790;2024-02-21T08:20:57;10.00;99.90
17252;DHT22;8742;51.716;8.790;2024-02-21T08:23:24;10.00;99.90
17252;DHT22;8742;51.716;8.790;2024-02-21T08:25:52;10.00;99.90
17252;DHT22;8742;51.716;8.790;2024-02-21T08:28:19;10.00;99.90
17252;DHT22;8742;51.716;8.790;2024-02-21T08:30:46;10.00;99.90
17252;DHT22;8742;51.716;8.790;2024-02-21T08:33:14;10.00;99.90
17252;DHT22;8742;51.716;8.790;2024-02-21T08:35:42;10.00;99.90
17252;DHT22;8742;51.716;8.790;2024-02-21T08:38:09;10.00;99.90
17252;DHT22;8742;51.716;8.790;2024-02-21T08:40:36;10.00;99.90
17252;DHT22;8742;51.716;8.790;2024-02-21T08:43:04;10.10;99.90
17252;DHT22;8742;51.716;8.790;2024-02-21T08:45:31;10.10;99.90
17252;DHT22;8742;51.716;8.790;2024-02-21T08:47:58;10.20;99.90
17252;DHT22;8742;51.716;8.790;2024-02-21T08:50:25;10.30;99.90
17252;DHT22;8742;51.716;8.790;2024-02-21T08:52:52;10.40;99.90
17252;DHT22;8742;51.716;8.790;2024-02-21T08:55:19;10.50;99.90
17252;DHT22;8742;51.716;8.790;2024-02-21T08:57:46;10.60;99.90
17252;DHT22;8742;51.716;8.790;2024-02-21T09:00:16;10.60;99.90
17252;DHT22;8742;51.716;8.790;2024-02-21T09:02:43;10.60;99.90
17252;DHT22;8742;51.716;8.790;2024-02-21T09:05:10;10.60;99.90
17252;DHT22;8742;51.716;8.790;2024-02-21T09:07:37;10.70;99.90
17252;DHT22;8742;51.716;8.790;2024-02-21T09:10:04;10.70;99.90
17252;DHT22;8742;51.716;8.790;2024-02-21T09:12:32;10.70;99.90
17252;DHT22;8742;51.716;8.790;2024-02-21T09:14:58;10.70;99.90
17252;DHT22;8742;51.716;8.790;2024-02-21T09:17:27;10.70;99.90
17252;DHT22;8742;51.716;8.790;2024-02-21T09:19:54;10.80;99.90
17252;DHT22;8742;51.716;8.790;2024-02-21T09:22:24;10.80;99.90
17252;DHT22;8742;51.716;8.790;2024-02-21T09:24:51;10.90;99.90
17252;DHT22;8742;51.716;8.790;2024-02-21T09:27:18;10.90;99.90
17252;DHT22;8742;51.716;8.790;2024-02-21T09:29:45;10.90;99.90
17252;DHT22;8742;51.716;8.790;2024-02-21T09:32:12;10.90;99.90
17252;DHT22;8742;51.716;8.790;2024-02-21T09:34:40;11.00;99.90
17252;DHT22;8742;51.716;8.790;2024-02-21T09:37:08;11.00;99.90
17252;DHT22;8742;51.716;8.790;2024-02-21T09:39:35;11.00;99.90
17252;DHT22;8742;51.716;8.790;2024-02-21T09:42:05;11.00;99.90
17252;DHT22;8742;51.716;8.790;2024-02-21T09:44:36;11.10;99.90
17252;DHT22;8742;51.716;8.790;2024-02-21T09:47:06;11.10;99.90
17252;DHT22;8742;51.716;8.790;2024-02-21T09:49:34;11.10;99.90
17252;DHT22;8742;51.716;8.790;2024-02-21T09:52:06;11.10;99.90
17252;DHT22;8742;51.716;8.790;2024-02-21T09:54:34;11.10;99.90
17252;DHT22;8742;51.716;8.790;2024-02-21T09:57:01;11.10;99.90
17252;DHT22;8742;51.716;8.790;2024-02-21T09:59:28;11.10;99.90
17252;DHT22;8742;51.716;8.790;2024-02-21T10:01:56;11.10;99.90
17252;DHT22;8742;51.716;8.790;2024-02-21T10:04:25;11.20;99.90
17252;DHT22;8742;51.716;8.790;2024-02-21T10:06:53;11.30;99.90
17252;DHT22;8742;51.716;8.790;2024-02-21T10:09:22;11.30;99.90
17252;DHT22;8742;51.716;8.790;2024-02-21T10:11:50;11.40;99.90
17252;DHT22;8742;51.716;8.790;2024-02-21T10:14:17;11.50;99.90
17252;DHT22;8742;51.716;8.790;2024-02-21T10:16:45;11.60;99.90
17252;DHT22;8742;51.716;8.790;2024-02-21T10:19:18;11.60;99.90
17252;DHT22;8742;51.716;8.790;2024-02-21T10:22:01;11.70;99.90
17252;DHT22;8742;51.716;8.790;2024-02-21T10:24:30;11.60;99.90
17252;DHT22;8742;51.716;8.790;2024-02-21T10:27:02;11.60;99.90
17252;DHT22;8742;51.716;8.790;2024-02-21T10:29:30;11.60;99.90
17252;DHT22;8742;51.716;8.790;2024-02-21T10:32:07;11.80;99.90
17252;DHT22;8742;51.716;8.790;2024-02-21T10:34:34;11.90;99.90
17252;DHT22;8742;51.716;8.790;2024-02-21T10:37:02;12.10;99.90
17252;DHT22;8742;51.716;8.790;2024-02-21T10:39:31;12.40;99.90
17252;DHT22;8742;51.716;8.790;2024-02-21T10:42:00;12.70;99.90
17252;DHT22;8742;51.716;8.790;2024-02-21T10:44:29;12.90;99.90
17252;DHT22;8742;51.716;8.790;2024-02-21T10:46:57;13.00;99.90
17252;DHT22;8742;51.716;8.790;2024-02-21T10:49:24;13.00;99.90
17252;DHT22;8742;51.716;8.790;2024-02-21T10:51:55;13.10;99.90
17252;DHT22;8742;51.716;8.790;2024-02-21T10:54:39;13.30;99.90
17252;DHT22;8742;51.716;8.790;2024-02-21T10:57:07;13.40;99.90
17252;DHT22;8742;51.716;8.790;2024-02-21T10:59:37;13.50;99.90
17252;DHT22;8742;51.716;8.790;2024-02-21T11:02:04;13.60;99.90
17252;DHT22;8742;51.716;8.790;2024-02-21T11:04:31;13.60;99.90
17252;DHT22;8742;51.716;8.790;2024-02-21T11:07:01;13.60;99.90
17252;DHT22;8742;51.716;8.790;2024-02-21T11:09:33;13.60;99.90
17252;DHT22;8742;51.716;8.790;2024-02-21T11:12:03;13.60;99.90
17252;DHT22;8742;51.716;8.790;2024-02-21T11:14:31;13.50;99.90
17252;DHT22;8742;51.716;8.790;2024-02-21T11:17:01;13.40;99.90
17252;DHT22;8742;51.716;8.790;2024-02-21T11:19:30;13.30;99.90
17252;DHT22;8742;51.716;8.790;2024-02-21T11:21:57;13.30;99.90
17252;DHT22;8742;51.716;8.790;2024-02-21T11:24:27;13.30;99.90
17252;DHT22;8742;51.716;8.790;2024-02-21T11:26:56;13.40;99.90
17252;DHT22;8742;51.716;8.790;2024-02-21T11:29:24;13.50;99.90
17252;DHT22;8742;51.716;8.790;2024-02-21T11:31:51;13.40;99.90
17252;DHT22;8742;51.716;8.790;2024-02-21T11:34:18;13.50;99.90
17252;DHT22;8742;51.716;8.790;2024-02-21T11:36:49;13.70;99.90
17252;DHT22;8742;51.716;8.790;2024-02-21T11:39:23;13.80;99.90
17252;DHT22;8742;51.716;8.790;2024-02-21T11:42:04;13.80;99.90
17252;DHT22;8742;51.716;8.790;2024-02-21T11:44:35;13.80;99.90
17252;DHT22;8742;51.716;8.790;2024-02-21T11:47:03;13.80;99.90
17252;DHT22;8742;51.716;8.790;2024-02-21T11:49:30;13.90;99.90
17252;DHT22;8742;51.716;8.790;2024-02-21T11:51:58;14.00;99.90
17252;DHT22;8742;51.716;8.790;2024-02-21T11:54:26;14.00;99.90
17252;DHT22;8742;51.716;8.790;2024-02-21T11:56:53;14.00;99.90
17252;DHT22;8742;51.716;8.790;2024-02-21T11:59:21;13.90;99.90
17252;DHT22;8742;51.716;8.790;2024-02-21T12:01:49;13.70;99.90
17252;DHT22;8742;51.716;8.790;2024-02-21T12:04:18;13.50;99.90
17252;DHT22;8742;51.716;8.790;2024-02-21T12:06:46;13.40;99.90
17252;DHT22;8742;51.716;8.790;2024-02-21T12:09:14;13.20;99.90
17252;DHT22;8742;51.716;8.790;2024-02-21T12:11:41;13.00;99.90
17252;DHT22;8742;51.716;8.790;2024-02-21T12:14:08;12.90;99.90
17252;DHT22;8742;51.716;8.790;2024-02-21T12:16:36;12.70;99.90
17252;DHT22;8742;51.716;8.790;2024-02-21T12:19:03;12.50;99.90
17252;DHT22;8742;51.716;8.790;2024-02-21T12:21:31;12.40;99.90
17252;DHT22;8742;51.716;8.790;2024-02-21T12:24:11;12.30;99.90
17252;DHT22;8742;51.716;8.790;2024-02-21T12:26:39;12.30;99.90
17252;DHT22;8742;51.716;8.790;2024-02-21T12:29:06;12.20;99.90
17252;DHT22;8742;51.716;8.790;2024-02-21T12:31:36;12.10;99.90
17252;DHT22;8742;51.716;8.790;2024-02-21T12:34:03;12.00;99.90
17252;DHT22;8742;51.716;8.790;2024-02-21T12:36:30;11.90;99.90
17252;DHT22;8742;51.716;8.790;2024-02-21T12:38:57;11.90;99.90
17252;DHT22;8742;51.716;8.790;2024-02-21T12:41:24;12.10;99.90
17252;DHT22;8742;51.716;8.790;2024-02-21T12:43:52;12.20;99.90
17252;DHT22;8742;51.716;8.790;2024-02-21T12:46:19;12.30;99.90
17252;DHT22;8742;51.716;8.790;2024-02-21T12:48:47;12.50;99.90
17252;DHT22;8742;51.716;8.790;2024-02-21T12:51:14;12.70;99.90
17252;DHT22;8742;51.716;8.790;2024-02-21T12:53:41;12.90;99.90
17252;DHT22;8742;51.716;8.790;2024-02-21T12:56:08;13.10;99.90
17252;DHT22;8742;51.716;8.790;2024-02-21T12:58:35;13.20;99.90
17252;DHT22;8742;51.716;8.790;2024-02-21T13:01:02;13.10;99.90
17252;DHT22;8742;51.716;8.790;2024-02-21T13:03:28;13.00;99.90
17252;DHT22;8742;51.716;8.790;2024-02-21T13:05:57;13.00;99.90
17252;DHT22;8742;51.716;8.790;2024-02-21T13:08:24;13.00;99.90
17252;DHT22;8742;51.716;8.790;2024-02-21T13:10:51;12.80;99.90
17252;DHT22;8742;51.716;8.790;2024-02-21T13:13:18;12.70;99.90
17252;DHT22;8742;51.716;8.790;2024-02-21T13:15:45;12.60;99.90
17252;DHT22;8742;51.716;8.790;2024-02-21T13:18:12;12.40;99.90
17252;DHT22;8742;51.716;8.790;2024-02-21T13:20:39;12.30;99.90
17252;DHT22;8742;51.716;8.790;2024-02-21T13:23:07;12.20;99.90
17252;DHT22;8742;51.716;8.790;2024-02-21T13:25:34;12.20;99.90
17252;DHT22;8742;51.716;8.790;2024-02-21T13:28:01;12.10;99.90
17252;DHT22;8742;51.716;8.790;2024-02-21T13:30:28;12.20;99.90
17252;DHT22;8742;51.716;8.790;2024-02-21T13:32:55;12.20;99.90
17252;DHT22;8742;51.716;8.790;2024-02-21T13:35:22;12.30;99.90
17252;DHT22;8742;51.716;8.790;2024-02-21T13:37:49;12.30;99.90
17252;DHT22;8742;51.716;8.790;2024-02-21T13:40:17;12.40;99.90
17252;DHT22;8742;51.716;8.790;2024-02-21T13:42:44;12.50;99.90
17252;DHT22;8742;51.716;8.790;2024-02-21T13:45:11;12.60;99.90
17252;DHT22;8742;51.716;8.790;2024-02-21T13:47:37;12.60;99.90
17252;DHT22;8742;51.716;8.790;2024-02-21T13:50:06;12.60;99.90
17252;DHT22;8742;51.716;8.790;2024-02-21T13:52:34;12.60;99.90
17252;DHT22;8742;51.716;8.790;2024-02-21T13:55:01;12.50;99.90
17252;DHT22;8742;51.716;8.790;2024-02-21T13:57:30;12.50;99.90
17252;DHT22;8742;51.716;8.790;2024-02-21T13:59:56;12.50;99.90
17252;DHT22;8742;51.716;8.790;2024-02-21T14:02:25;12.50;99.90
17252;DHT22;8742;51.716;8.790;2024-02-21T14:04:51;12.50;99.90
17252;DHT22;8742;51.716;8.790;2024-02-21T14:07:18;12.40;99.90
17252;DHT22;8742;51.716;8.790;2024-02-21T14:09:45;12.40;99.90
17252;DHT22;8742;51.716;8.790;2024-02-21T14:12:12;12.30;99.90
17252;DHT22;8742;51.716;8.790;2024-02-21T14:14:40;12.30;99.90
17252;DHT22;8742;51.716;8.790;2024-02-21T14:17:08;12.30;99.90
17252;DHT22;8742;51.716;8.790;2024-02-21T14:19:35;12.30;99.90
17252;DHT22;8742;51.716;8.790;2024-02-21T14:22:02;12.30;99.90
17252;DHT22;8742;51.716;8.790;2024-02-21T14:24:29;12.20;99.90
17252;DHT22;8742;51.716;8.790;2024-02-21T14:26:56;12.20;99.90
17252;DHT22;8742;51.716;8.790;2024-02-21T14:29:23;12.20;99.90
17252;DHT22;8742;51.716;8.790;2024-02-21T14:31:51;12.20;99.90
17252;DHT22;8742;51.716;8.790;2024-02-21T14:34:18;12.20;99.90
17252;DHT22;8742;51.716;8.790;2024-02-21T14:36:45;12.10;99.90
17252;DHT22;8742;51.716;8.790;2024-02-21T14:39:12;12.10;99.90
17252;DHT22;8742;51.716;8.790;2024-02-21T14:41:39;12.10;99.90
17252;DHT22;8742;51.716;8.790;2024-02-21T14:44:06;12.10;99.90
17252;DHT22;8742;51.716;8.790;2024-02-21T14:46:36;12.10;99.90
17252;DHT22;8742;51.716;8.790;2024-02-21T14:49:05;12.00;99.90
17252;DHT22;8742;51.716;8.790;2024-02-21T14:51:32;12.00;99.90
17252;DHT22;8742;51.716;8.790;2024-02-21T14:53:59;11.90;99.90
17252;DHT22;8742;51.716;8.790;2024-02-21T14:56:26;11.80;99.90
17252;DHT22;8742;51.716;8.790;2024-02-21T14:58:53;11.80;99.90
17252;DHT22;8742;51.716;8.790;2024-02-21T15:01:20;11.70;99.90
17252;DHT22;8742;51.716;8.790;2024-02-21T15:03:47;11.60;99.90
17252;DHT22;8742;51.716;8.790;2024-02-21T15:06:15;11.60;99.90
17252;DHT22;8742;51.716;8.790;2024-02-21T15:08:42;11.50;99.90
17252;DHT22;8742;51.716;8.790;2024-02-21T15:11:09;11.40;99.90
17252;DHT22;8742;51.716;8.790;2024-02-21T15:13:36;11.40;99.90
17252;DHT22;8742;51.716;8.790;2024-02-21T15:16:03;11.30;99.90
17252;DHT22;8742;51.716;8.790;2024-02-21T15:18:30;11.30;99.90
17252;DHT22;8742;51.716;8.790;2024-02-21T15:20:58;11.20;99.90
17252;DHT22;8742;51.716;8.790;2024-02-21T15:23:27;11.20;99.90
17252;DHT22;8742;51.716;8.790;2024-02-21T15:25:53;11.10;99.90
17252;DHT22;8742;51.716;8.790;2024-02-21T15:28:20;11.10;99.90
17252;DHT22;8742;51.716;8.790;2024-02-21T15:30:47;11.00;99.90
17252;DHT22;8742;51.716;8.790;2024-02-21T15:33:14;11.00;99.90
17252;DHT22;8742;51.716;8.790;2024-02-21T15:35:41;10.90;99.90
17252;DHT22;8742;51.716;8.790;2024-02-21T15:38:08;10.90;99.90
17252;DHT22;8742;51.716;8.790;2024-02-21T15:40:36;10.90;99.90
17252;DHT22;8742;51.716;8.790;2024-02-21T15:43:03;10.90;99.90
17252;DHT22;8742;51.716;8.790;2024-02-21T15:45:30;10.80;99.90
17252;DHT22;8742;51.716;8.790;2024-02-21T15:47:57;10.70;99.90
17252;DHT22;8742;51.716;8.790;2024-02-21T15:50:24;10.60;99.90
17252;DHT22;8742;51.716;8.790;2024-02-21T15:52:53;10.60;99.90
17252;DHT22;8742;51.716;8.790;2024-02-21T15:55:20;10.60;99.90
17252;DHT22;8742;51.716;8.790;2024-02-21T15:57:48;10.50;99.90
17252;DHT22;8742;51.716;8.790;2024-02-21T16:00:16;10.50;99.90